Time;durP1;ratioP1;P1;durP2;ratioP2;P2;SDS_P1;SDS_P2;PMS_P1;PMS_P2;Temp;Humidity;BMP_temperature;BMP_pressure;BME280_temperature;BME280_humidity;BME280_pressure;Samples;Min_cycle;Max_cycle;Signal;HPM_P1;HPM_P2
2021/08/21 00:01:31;;;;;;;20.65;14.65;;;16.60;99.90;;;;;;4859729;29;20033;-86
2021/08/21 00:03:56;;;;;;;21.17;15.50;;;16.60;99.90;;;;;;4850682;29;20055;-84
2021/08/21 00:06:22;;;;;;;19.38;13.98;;;16.60;99.90;;;;;;4847832;29;20402;-84
2021/08/21 00:08:48;;;;;;;18.55;15.00;;;16.60;99.90;;;;;;4875180;29;20478;-86
2021/08/21 00:11:14;;;;;;;21.25;14.93;;;16.60;99.90;;;;;;4844413;29;20037;-84
2021/08/21 00:13:43;;;;;;;22.70;15.85;;;16.70;99.90;;;;;;4860962;29;20057;-75
2021/08/21 00:16:09;;;;;;;21.95;15.02;;;16.70;99.90;;;;;;4842431;29;20045;-75
2021/08/21 00:18:35;;;;;;;25.52;15.07;;;16.70;99.90;;;;;;4859952;29;20038;-75
2021/08/21 00:21:01;;;;;;;19.95;14.90;;;16.90;99.90;;;;;;4850502;29;20097;-84
2021/08/21 00:23:27;;;;;;;19.60;15.63;;;16.70;99.90;;;;;;4835587;29;20041;-84
2021/08/21 00:25:52;;;;;;;20.58;14.68;;;16.80;99.90;;;;;;4862294;29;20052;-83
2021/08/21 00:28:18;;;;;;;18.33;14.15;;;16.70;99.90;;;;;;4859891;29;20057;-84
2021/08/21 00:30:44;;;;;;;21.30;14.57;;;16.70;99.90;;;;;;4843771;29;20060;-84
2021/08/21 00:33:13;;;;;;;18.48;14.15;;;16.80;99.90;;;;;;4828054;29;20542;-84
2021/08/21 00:35:39;;;;;;;18.73;14.30;;;17.00;99.90;;;;;;4844236;29;20041;-84
2021/08/21 00:38:04;;;;;;;18.70;13.93;;;16.80;99.90;;;;;;4860706;29;20398;-84
2021/08/21 00:40:31;;;;;;;18.40;14.05;;;16.80;99.90;;;;;;4843868;29;20037;-84
2021/08/21 00:42:57;;;;;;;19.13;13.77;;;16.80;99.90;;;;;;4859858;29;20048;-84
2021/08/21 00:45:24;;;;;;;20.98;13.48;;;16.80;99.90;;;;;;4843170;29;20045;-84
2021/08/21 00:47:49;;;;;;;15.88;12.98;;;16.80;99.90;;;;;;4828727;29;20048;-77
2021/08/21 00:50:18;;;;;;;20.45;12.57;;;16.80;99.90;;;;;;4842341;29;20470;-76
2021/08/21 00:52:44;;;;;;;19.52;13.15;;;16.80;99.90;;;;;;4859339;29;20061;-77
2021/08/21 00:55:10;;;;;;;18.08;13.20;;;16.80;99.90;;;;;;4846885;29;20120;-76
2021/08/21 00:57:36;;;;;;;17.48;13.18;;;16.80;99.90;;;;;;4863867;29;20124;-77
2021/08/21 01:00:04;;;;;;;19.27;13.05;;;16.80;99.90;;;;;;4877969;29;20624;-86
2021/08/21 01:02:31;;;;;;;20.75;14.43;;;16.80;99.90;;;;;;4843695;29;20054;-85
2021/08/21 01:04:58;;;;;;;21.65;14.43;;;17.00;99.90;;;;;;4857900;29;20041;-86
2021/08/21 01:07:33;;;;;;;17.58;14.43;;;16.80;99.90;;;;;;4862849;29;20065;-85
2021/08/21 01:10:06;;;;;;;17.98;14.07;;;16.80;99.90;;;;;;4860987;29;20482;-76
2021/08/21 01:12:32;;;;;;;22.10;15.82;;;16.80;99.90;;;;;;4863200;29;20097;-77
2021/08/21 01:14:59;;;;;;;21.08;16.17;;;16.80;99.90;;;;;;4863491;29;20048;-76
2021/08/21 01:17:26;;;;;;;22.20;15.95;;;16.80;99.90;;;;;;4862270;29;20064;-76
2021/08/21 01:19:52;;;;;;;24.13;17.00;;;16.80;99.90;;;;;;4875398;29;20050;-76
2021/08/21 01:22:24;;;;;;;24.65;16.40;;;16.80;99.90;;;;;;4847170;29;20057;-76
2021/08/21 01:24:51;;;;;;;27.42;18.90;;;16.80;99.90;;;;;;4859760;29;20042;-76
2021/08/21 01:27:35;;;;;;;27.40;18.75;;;16.80;99.90;;;;;;4846505;29;20374;-76
2021/08/21 01:30:01;;;;;;;25.45;17.88;;;16.80;99.90;;;;;;4859635;29;20050;-76
2021/08/21 01:32:28;;;;;;;27.90;18.42;;;16.80;99.90;;;;;;4877373;29;20390;-78
2021/08/21 01:34:57;;;;;;;21.88;16.48;;;16.80;99.90;;;;;;4877610;29;20053;-78
2021/08/21 01:37:25;;;;;;;21.30;15.57;;;16.50;99.90;;;;;;4863478;29;20052;-78
2021/08/21 01:39:54;;;;;;;23.15;16.77;;;16.80;99.90;;;;;;4854265;29;20053;-78
2021/08/21 01:42:21;;;;;;;21.73;16.65;;;16.80;99.90;;;;;;4861324;29;20038;-78
2021/08/21 01:44:47;;;;;;;23.48;15.77;;;16.80;99.90;;;;;;4848124;29;20038;-75
2021/08/21 01:47:15;;;;;;;22.60;14.77;;;16.80;99.90;;;;;;4862458;29;20049;-75
2021/08/21 01:49:41;;;;;;;21.08;14.95;;;16.80;99.90;;;;;;4875927;29;20037;-75
2021/08/21 01:52:07;;;;;;;19.65;14.35;;;16.70;99.90;;;;;;4861856;29;20405;-78
2021/08/21 01:54:35;;;;;;;19.23;13.70;;;16.70;99.90;;;;;;4862519;29;20033;-76
2021/08/21 01:57:03;;;;;;;21.60;13.85;;;16.70;99.90;;;;;;4875275;29;20045;-76
2021/08/21 01:59:33;;;;;;;19.80;14.85;;;16.70;99.90;;;;;;4861619;29;20058;-76
2021/08/21 02:02:00;;;;;;;19.50;13.85;;;16.80;99.90;;;;;;4856134;29;20037;-76
2021/08/21 02:04:26;;;;;;;17.92;13.23;;;16.70;99.90;;;;;;4876172;29;20105;-76
2021/08/21 02:06:52;;;;;;;21.75;14.30;;;16.80;99.90;;;;;;4876633;29;20106;-78
2021/08/21 02:09:21;;;;;;;21.40;15.57;;;16.70;99.90;;;;;;4862309;29;20116;-78
2021/08/21 02:11:48;;;;;;;19.55;13.02;;;16.70;99.90;;;;;;4862834;29;20113;-78
2021/08/21 02:14:16;;;;;;;21.33;13.98;;;16.70;99.90;;;;;;4860699;29;20057;-77
2021/08/21 02:16:43;;;;;;;23.30;15.07;;;16.70;99.90;;;;;;4862375;29;20048;-78
2021/08/21 02:19:09;;;;;;;23.02;15.52;;;16.70;99.90;;;;;;4860498;29;20048;-78
2021/08/21 02:21:35;;;;;;;25.73;16.27;;;16.70;99.90;;;;;;4862424;29;20501;-85
2021/08/21 02:24:01;;;;;;;23.80;15.45;;;16.70;99.90;;;;;;4858886;29;20041;-84
2021/08/21 02:26:28;;;;;;;21.30;16.60;;;16.70;99.90;;;;;;4861890;29;20049;-86
2021/08/21 02:28:57;;;;;;;24.55;16.02;;;16.70;99.90;;;;;;4846718;29;20053;-86
2021/08/21 02:31:25;;;;;;;19.42;14.20;;;16.70;99.90;;;;;;4861470;29;20041;-84
2021/08/21 02:33:51;;;;;;;23.45;16.67;;;16.70;99.90;;;;;;4850935;29;20041;-84
2021/08/21 02:36:17;;;;;;;24.40;16.92;;;16.80;99.90;;;;;;4875356;29;20470;-85
2021/08/21 02:38:45;;;;;;;25.42;16.95;;;16.70;99.90;;;;;;4862125;29;20383;-84
2021/08/21 02:41:13;;;;;;;25.45;15.57;;;16.70;99.90;;;;;;4868012;29;20134;-84
2021/08/21 02:43:38;;;;;;;22.20;16.02;;;16.70;99.90;;;;;;4876306;29;20456;-84
2021/08/21 02:46:04;;;;;;;24.00;16.63;;;16.80;99.90;;;;;;4847611;29;20033;-85
2021/08/21 02:48:31;;;;;;;20.90;14.45;;;16.80;99.90;;;;;;4876214;29;20049;-85
2021/08/21 02:50:56;;;;;;;21.92;14.63;;;16.80;99.90;;;;;;4850234;29;20049;-84
2021/08/21 02:53:25;;;;;;;19.70;14.32;;;16.80;99.90;;;;;;4848070;29;20041;-83
2021/08/21 02:55:51;;;;;;;19.48;13.77;;;16.80;99.90;;;;;;4848798;29;20072;-85
2021/08/21 02:58:17;;;;;;;19.60;14.05;;;16.80;99.90;;;;;;4862410;29;20073;-83
2021/08/21 03:00:43;;;;;;;18.52;14.10;;;16.80;99.90;;;;;;4854370;29;20029;-83
2021/08/21 03:03:10;;;;;;;23.23;13.40;;;16.80;99.90;;;;;;4861468;29;20478;-76
2021/08/21 03:05:39;;;;;;;19.55;13.68;;;16.80;99.90;;;;;;4861769;29;20112;-75
2021/08/21 03:08:06;;;;;;;18.88;13.52;;;16.80;99.90;;;;;;4875810;29;20049;-78
2021/08/21 03:10:33;;;;;;;21.38;13.68;;;16.80;99.90;;;;;;4861517;29;20410;-76
2021/08/21 03:12:59;;;;;;;20.75;14.43;;;16.80;99.90;;;;;;4861062;29;20049;-75
2021/08/21 03:15:26;;;;;;;20.67;14.23;;;16.80;99.90;;;;;;4875677;29;20061;-76
2021/08/21 03:17:53;;;;;;;25.70;14.57;;;16.80;99.90;;;;;;4842716;29;20057;-76
2021/08/21 03:20:18;;;;;;;22.30;14.77;;;16.80;99.90;;;;;;4861119;29;20403;-76
2021/08/21 03:22:44;;;;;;;24.45;16.02;;;16.80;99.90;;;;;;4848243;29;20045;-76
2021/08/21 03:25:11;;;;;;;23.23;16.02;;;16.80;99.90;;;;;;4861192;29;20069;-76
2021/08/21 03:27:36;;;;;;;22.80;16.80;;;16.80;99.90;;;;;;4844470;29;20040;-76
2021/08/21 03:30:04;;;;;;;23.50;16.08;;;16.80;99.90;;;;;;4860879;29;20375;-76
2021/08/21 03:32:30;;;;;;;22.23;16.52;;;16.80;99.90;;;;;;4875092;29;20496;-76
2021/08/21 03:34:58;;;;;;;25.23;16.63;;;16.80;99.90;;;;;;4860360;29;20052;-76
2021/08/21 03:37:24;;;;;;;33.10;18.27;;;16.80;99.90;;;;;;4860663;29;20041;-85
2021/08/21 03:39:50;;;;;;;24.25;17.00;;;16.80;99.90;;;;;;4861787;29;20120;-85
2021/08/21 03:42:16;;;;;;;24.95;18.40;;;16.80;99.90;;;;;;4868157;29;20037;-85
2021/08/21 03:44:42;;;;;;;25.52;17.88;;;16.80;99.90;;;;;;4855938;29;20042;-84
2021/08/21 03:47:08;;;;;;;28.33;18.75;;;16.80;99.90;;;;;;4861311;29;20029;-85
2021/08/21 03:49:35;;;;;;;25.23;18.20;;;16.80;99.90;;;;;;4861153;29;20148;-88
2021/08/21 03:52:02;;;;;;;27.17;19.52;;;16.80;99.90;;;;;;4860878;29;20085;-87
2021/08/21 03:54:33;;;;;;;25.98;18.75;;;16.80;99.90;;;;;;4850798;29;20501;-87
2021/08/21 03:56:59;;;;;;;27.45;19.23;;;16.80;99.90;;;;;;4846044;29;20050;-77
2021/08/21 03:59:25;;;;;;;26.88;19.98;;;16.80;99.90;;;;;;4860429;29;20045;-77
2021/08/21 04:01:51;;;;;;;24.77;19.25;;;16.70;99.90;;;;;;4874624;29;20086;-77
2021/08/21 04:04:17;;;;;;;25.02;18.98;;;16.70;99.90;;;;;;4874583;29;20037;-77
2021/08/21 04:06:43;;;;;;;25.52;19.85;;;16.70;99.90;;;;;;4859169;29;20097;-77
2021/08/21 04:09:09;;;;;;;29.45;21.50;;;16.70;99.90;;;;;;4845382;29;20109;-77
2021/08/21 04:11:35;;;;;;;32.63;22.13;;;16.70;99.90;;;;;;4859434;29;20037;-77
2021/08/21 04:14:01;;;;;;;33.17;21.40;;;16.70;99.90;;;;;;4836669;29;20058;-76
2021/08/21 04:16:27;;;;;;;32.38;21.55;;;16.60;99.90;;;;;;4860525;29;20049;-76
2021/08/21 04:18:53;;;;;;;31.48;22.85;;;16.70;99.90;;;;;;4860415;29;20049;-76
2021/08/21 04:21:18;;;;;;;30.35;22.10;;;16.70;99.90;;;;;;4860018;29;20045;-76
2021/08/21 04:23:46;;;;;;;29.65;22.10;;;16.60;99.90;;;;;;4859525;29;20117;-76
2021/08/21 04:26:12;;;;;;;37.40;24.42;;;16.60;99.90;;;;;;4858405;29;20061;-77
2021/08/21 04:28:37;;;;;;;34.15;24.13;;;16.60;99.90;;;;;;4859519;29;20458;-77
2021/08/21 04:31:03;;;;;;;37.13;23.75;;;16.60;99.90;;;;;;4852685;29;20037;-77
2021/08/21 04:33:29;;;;;;;30.65;23.05;;;16.60;99.90;;;;;;4874312;29;20096;-77
2021/08/21 04:35:55;;;;;;;31.38;23.25;;;16.60;99.90;;;;;;4874061;29;20457;-77
2021/08/21 04:38:24;;;;;;;35.72;22.20;;;16.60;99.90;;;;;;4855817;29;20057;-77
2021/08/21 04:40:49;;;;;;;32.63;22.85;;;16.60;99.90;;;;;;4859260;29;20534;-77
2021/08/21 04:43:16;;;;;;;27.50;22.10;;;16.60;99.90;;;;;;4834192;29;20174;-77
2021/08/21 04:45:43;;;;;;;30.00;21.95;;;16.60;99.90;;;;;;4874098;29;20170;-77
2021/08/21 04:48:10;;;;;;;30.25;21.80;;;16.60;99.90;;;;;;4843449;29;20065;-77
2021/08/21 04:50:41;;;;;;;29.13;21.15;;;16.60;99.90;;;;;;4847270;29;20073;-77
2021/08/21 04:53:07;;;;;;;31.55;21.52;;;16.60;99.90;;;;;;4847478;29;20044;-77
2021/08/21 04:55:34;;;;;;;32.67;22.13;;;16.60;99.90;;;;;;4847320;29;20458;-76
2021/08/21 04:58:01;;;;;;;31.35;21.38;;;16.50;99.90;;;;;;4846859;29;20053;-77
2021/08/21 05:00:29;;;;;;;27.75;21.42;;;16.50;99.90;;;;;;4858294;29;20133;-77
2021/08/21 05:02:57;;;;;;;30.25;22.95;;;16.50;99.90;;;;;;4859347;29;20052;-77
2021/08/21 05:05:28;;;;;;;30.77;22.45;;;16.50;99.90;;;;;;4873385;29;20120;-77
2021/08/21 05:07:54;;;;;;;31.40;22.45;;;16.30;99.90;;;;;;4848659;29;20069;-77
2021/08/21 05:10:20;;;;;;;30.15;22.75;;;16.50;99.90;;;;;;4859399;29;20494;-77
2021/08/21 05:12:45;;;;;;;34.47;23.67;;;16.50;99.90;;;;;;4861973;29;20560;-77
2021/08/21 05:15:13;;;;;;;31.25;22.85;;;16.50;99.90;;;;;;4842053;29;20041;-77
2021/08/21 05:17:39;;;;;;;33.90;22.95;;;16.50;99.90;;;;;;4889734;29;20117;-77
2021/08/21 05:20:29;;;;;;;32.05;22.98;;;16.50;99.90;;;;;;4867319;29;20529;-77
2021/08/21 05:23:14;;;;;;;33.58;23.23;;;16.50;99.90;;;;;;4856989;29;20053;-77
2021/08/21 05:25:46;;;;;;;31.23;22.35;;;16.50;99.90;;;;;;4885254;29;20410;-77
2021/08/21 05:28:13;;;;;;;31.70;22.67;;;16.50;99.90;;;;;;4846548;29;20033;-77
2021/08/21 05:30:40;;;;;;;31.08;23.25;;;16.90;99.90;;;;;;4892374;29;20042;-77
2021/08/21 05:33:15;;;;;;;30.45;23.98;;;16.50;99.90;;;;;;4885759;29;20044;-77
2021/08/21 05:35:42;;;;;;;33.65;24.15;;;16.60;99.90;;;;;;4887684;29;20482;-77
2021/08/21 05:38:09;;;;;;;32.20;24.50;;;16.60;99.90;;;;;;4866093;29;20049;-77
2021/08/21 05:40:35;;;;;;;33.80;24.23;;;16.50;99.90;;;;;;4873123;29;20044;-77
2021/08/21 05:43:02;;;;;;;33.20;24.05;;;16.50;99.90;;;;;;4863090;29;20061;-78
2021/08/21 05:45:30;;;;;;;34.95;25.20;;;16.50;99.90;;;;;;4873016;29;20038;-76
2021/08/21 05:47:56;;;;;;;34.75;25.70;;;16.50;99.90;;;;;;4861457;29;20041;-77
2021/08/21 05:50:23;;;;;;;34.13;24.85;;;16.50;99.90;;;;;;4862997;29;20049;-77
2021/08/21 05:52:50;;;;;;;34.88;24.98;;;16.50;99.90;;;;;;4861339;29;20080;-78
2021/08/21 05:55:19;;;;;;;31.75;24.42;;;16.60;99.90;;;;;;4852317;29;20065;-78
2021/08/21 05:57:45;;;;;;;32.83;24.45;;;16.60;99.90;;;;;;4895537;29;20119;-78
2021/08/21 06:00:11;;;;;;;36.40;25.15;;;16.60;99.90;;;;;;4867882;29;20101;-76
2021/08/21 06:02:37;;;;;;;33.17;24.58;;;16.60;99.90;;;;;;4852326;29;20043;-78
2021/08/21 06:05:03;;;;;;;33.13;24.73;;;16.60;99.90;;;;;;4865180;29;20038;-78
2021/08/21 06:07:30;;;;;;;33.13;24.40;;;16.60;99.90;;;;;;4854266;29;20573;-78
2021/08/21 06:09:56;;;;;;;32.53;25.25;;;16.70;99.90;;;;;;4878493;29;20089;-78
2021/08/21 06:12:24;;;;;;;31.50;23.15;;;16.70;99.90;;;;;;4885928;29;20045;-78
2021/08/21 06:14:50;;;;;;;33.15;24.17;;;16.70;99.90;;;;;;4882800;29;20049;-78
2021/08/21 06:17:18;;;;;;;33.70;24.70;;;16.70;99.90;;;;;;4876030;29;20490;-78
2021/08/21 06:19:46;;;;;;;32.08;23.75;;;16.70;99.90;;;;;;4892353;29;20045;-78
2021/08/21 06:22:12;;;;;;;34.50;23.52;;;16.70;99.90;;;;;;4862811;29;20049;-78
2021/08/21 06:24:38;;;;;;;36.92;26.10;;;16.70;99.90;;;;;;4867239;29;20049;-77
2021/08/21 06:27:04;;;;;;;32.38;24.75;;;16.70;99.90;;;;;;4881122;29;20045;-77
2021/08/21 06:29:34;;;;;;;33.65;25.20;;;16.80;99.90;;;;;;4879340;29;20065;-77
2021/08/21 06:32:05;;;;;;;32.90;23.33;;;16.90;99.90;;;;;;4863789;29;20038;-77
2021/08/21 06:34:33;;;;;;;36.72;25.35;;;16.80;99.90;;;;;;4865709;29;20102;-77
2021/08/21 06:36:59;;;;;;;37.10;25.90;;;16.90;99.90;;;;;;4844817;29;20053;-77
2021/08/21 06:39:25;;;;;;;33.67;25.23;;;16.90;99.90;;;;;;4862527;29;20045;-77
2021/08/21 06:41:51;;;;;;;33.47;26.77;;;16.90;99.90;;;;;;4845039;29;20045;-77
2021/08/21 06:44:17;;;;;;;35.97;25.67;;;16.90;99.90;;;;;;4871064;29;20037;-78
2021/08/21 06:46:43;;;;;;;34.45;24.70;;;16.90;99.90;;;;;;4870764;29;20057;-78
2021/08/21 06:49:09;;;;;;;34.92;26.00;;;17.00;99.90;;;;;;4845442;29;20072;-78
2021/08/21 06:51:34;;;;;;;38.65;25.25;;;17.00;99.90;;;;;;4848905;29;20045;-78
2021/08/21 06:54:01;;;;;;;37.83;26.52;;;17.10;99.90;;;;;;4862924;29;20042;-78
2021/08/21 06:56:27;;;;;;;36.40;25.88;;;17.10;99.90;;;;;;4862198;29;20063;-77
2021/08/21 06:58:53;;;;;;;38.13;27.95;;;17.10;99.90;;;;;;4843385;29;20073;-77
2021/08/21 07:01:19;;;;;;;40.78;27.23;;;17.20;99.90;;;;;;4862113;29;20049;-86
2021/08/21 07:03:45;;;;;;;34.88;27.27;;;17.20;99.90;;;;;;4874044;29;20461;-78
2021/08/21 07:06:10;;;;;;;34.47;26.50;;;17.30;99.90;;;;;;4852496;29;20056;-76
2021/08/21 07:08:39;;;;;;;35.17;25.23;;;17.30;99.90;;;;;;4865621;29;20037;-82
2021/08/21 07:11:06;;;;;;;35.03;26.48;;;17.40;99.90;;;;;;4854449;29;20045;-83
2021/08/21 07:13:35;;;;;;;36.45;26.95;;;17.40;99.90;;;;;;4871741;29;20051;-80
2021/08/21 07:16:06;;;;;;;42.10;27.60;;;17.50;99.90;;;;;;4873607;29;20101;-80
2021/08/21 07:18:32;;;;;;;41.42;29.20;;;17.60;99.90;;;;;;4855661;29;20045;-81
2021/08/21 07:20:57;;;;;;;42.20;29.95;;;17.60;99.90;;;;;;4846333;29;20092;-81
2021/08/21 07:23:23;;;;;;;38.40;28.27;;;17.70;99.90;;;;;;4878970;29;20037;-81
2021/08/21 07:25:49;;;;;;;39.58;28.92;;;17.80;99.90;;;;;;4859300;29;20029;-79
2021/08/21 07:28:15;;;;;;;44.75;29.67;;;17.90;99.90;;;;;;4865923;29;20053;-79
2021/08/21 07:30:41;;;;;;;40.13;27.23;;;17.70;99.90;;;;;;4843936;29;20040;-81
2021/08/21 07:33:07;;;;;;;39.63;28.08;;;18.00;99.90;;;;;;4845924;29;20034;-82
2021/08/21 07:35:33;;;;;;;39.17;28.35;;;18.00;99.90;;;;;;4862050;29;20045;-88
2021/08/21 07:37:59;;;;;;;43.58;28.33;;;18.00;99.90;;;;;;4861656;29;20068;-89
2021/08/21 07:40:25;;;;;;;38.72;27.48;;;18.00;99.90;;;;;;4844285;29;20029;-88
2021/08/21 07:42:54;;;;;;;44.55;27.33;;;18.10;99.90;;;;;;4877348;29;20044;-88
2021/08/21 07:45:19;;;;;;;40.90;28.80;;;18.10;99.90;;;;;;4850301;29;20033;-87
2021/08/21 07:47:49;;;;;;;36.55;26.60;;;18.10;99.90;;;;;;4870742;29;20118;-86
2021/08/21 07:50:15;;;;;;;35.22;26.10;;;18.20;99.90;;;;;;4869731;29;20398;-77
2021/08/21 07:52:46;;;;;;;36.22;26.40;;;18.20;99.90;;;;;;4879117;29;20048;-76
2021/08/21 07:55:13;;;;;;;36.45;27.05;;;18.20;99.90;;;;;;4848506;29;20102;-78
2021/08/21 07:57:39;;;;;;;38.20;27.23;;;18.20;99.90;;;;;;4879242;29;20482;-75
2021/08/21 08:00:08;;;;;;;40.28;28.38;;;18.30;99.90;;;;;;4879077;29;20030;-77
2021/08/21 08:02:34;;;;;;;41.05;27.02;;;18.30;99.90;;;;;;4857836;29;20493;-81
2021/08/21 08:05:02;;;;;;;34.70;27.13;;;18.30;99.90;;;;;;4831196;29;20144;-82
2021/08/21 08:07:28;;;;;;;35.00;26.65;;;18.40;99.90;;;;;;4871102;29;20045;-82
2021/08/21 08:09:54;;;;;;;38.58;26.52;;;18.40;99.90;;;;;;4862907;29;20049;-82
2021/08/21 08:12:20;;;;;;;37.25;25.08;;;18.50;99.90;;;;;;4833448;29;20475;-82
2021/08/21 08:14:46;;;;;;;37.22;24.95;;;18.50;99.90;;;;;;4887262;29;20049;-82
2021/08/21 08:17:14;;;;;;;37.28;24.75;;;18.50;99.90;;;;;;4859023;29;20053;-81
2021/08/21 08:19:39;;;;;;;37.42;24.88;;;18.40;99.90;;;;;;4846233;29;20033;-82
2021/08/21 08:22:08;;;;;;;32.15;22.85;;;18.60;99.90;;;;;;4838474;29;20131;-82
2021/08/21 08:24:34;;;;;;;30.58;22.95;;;18.60;99.90;;;;;;4843587;29;20128;-82
2021/08/21 08:27:03;;;;;;;33.97;22.80;;;18.60;99.90;;;;;;4836137;29;20060;-82
2021/08/21 08:29:31;;;;;;;30.45;22.92;;;18.70;99.90;;;;;;4873465;29;20121;-83
2021/08/21 08:31:57;;;;;;;30.98;22.70;;;18.70;99.90;;;;;;4836944;29;20068;-83
2021/08/21 08:34:23;;;;;;;31.80;23.23;;;18.80;99.90;;;;;;4858462;29;20453;-84
2021/08/21 08:36:49;;;;;;;30.25;21.50;;;18.90;99.90;;;;;;4875970;29;20457;-76
2021/08/21 08:39:15;;;;;;;30.55;22.45;;;18.60;99.90;;;;;;4875494;29;20078;-76
2021/08/21 08:41:42;;;;;;;31.65;22.52;;;18.90;99.90;;;;;;4873082;29;20052;-76
2021/08/21 08:44:11;;;;;;;30.98;21.45;;;18.90;99.90;;;;;;4844242;29;20042;-84
2021/08/21 08:46:37;;;;;;;28.40;22.17;;;18.90;99.90;;;;;;4872249;29;20053;-83
2021/08/21 08:49:05;;;;;;;30.67;20.20;;;19.00;99.90;;;;;;4862897;29;20472;-77
2021/08/21 08:51:35;;;;;;;26.25;19.17;;;19.00;99.90;;;;;;4865106;29;20397;-81
2021/08/21 08:54:02;;;;;;;24.20;18.58;;;19.10;99.90;;;;;;4865283;29;20040;-81
2021/08/21 08:56:28;;;;;;;30.30;22.63;;;19.10;99.90;;;;;;4870408;29;20042;-83
2021/08/21 08:58:54;;;;;;;25.48;19.83;;;19.10;99.90;;;;;;4875680;29;20067;-83
2021/08/21 09:01:20;;;;;;;26.60;19.10;;;19.10;99.90;;;;;;4881587;29;20038;-78
2021/08/21 09:03:47;;;;;;;24.00;18.40;;;19.10;99.90;;;;;;4867638;29;20094;-82
2021/08/21 09:06:36;;;;;;;24.27;17.92;;;19.10;99.90;;;;;;4884773;29;20057;-84
2021/08/21 09:09:10;;;;;;;24.73;18.42;;;19.20;99.90;;;;;;4868123;29;20109;-82
2021/08/21 09:11:41;;;;;;;25.23;18.80;;;19.20;99.90;;;;;;4850131;29;20452;-83
2021/08/21 09:14:29;;;;;;;32.65;19.30;;;19.20;99.90;;;;;;4860583;29;20465;-85
2021/08/21 09:17:17;;;;;;;22.63;17.30;;;19.30;99.90;;;;;;4854964;29;20471;-77
2021/08/21 09:19:43;;;;;;;29.48;18.08;;;19.40;99.90;;;;;;4874118;29;20065;-77
2021/08/21 09:22:12;;;;;;;23.30;15.90;;;19.40;99.90;;;;;;4886533;29;20477;-78
2021/08/21 09:24:40;;;;;;;21.60;14.82;;;19.40;99.90;;;;;;4868736;29;20466;-77
2021/08/21 09:27:21;;;;;;;20.48;14.43;;;19.40;99.90;;;;;;4872607;29;20052;-77
2021/08/21 09:30:15;;;;;;;18.52;14.40;;;19.50;99.90;;;;;;4863055;29;20470;-77
2021/08/21 09:32:41;;;;;;;20.92;14.23;;;19.50;99.90;;;;;;4863303;29;20045;-77
2021/08/21 09:35:09;;;;;;;19.75;14.80;;;19.40;99.90;;;;;;4862878;29;20034;-77
2021/08/21 09:37:58;;;;;;;20.70;15.68;;;19.40;99.90;;;;;;4863211;29;20490;-77
2021/08/21 09:40:37;;;;;;;19.27;14.85;;;19.50;99.90;;;;;;4855387;29;20120;-77
2021/08/21 09:43:19;;;;;;;20.48;13.52;;;19.50;99.90;;;;;;4858073;29;20048;-77
2021/08/21 09:45:45;;;;;;;17.73;11.88;;;19.50;99.90;;;;;;4877021;29;20037;-77
2021/08/21 09:48:11;;;;;;;16.13;11.95;;;19.60;99.90;;;;;;4862819;29;20037;-77
2021/08/21 09:50:42;;;;;;;16.85;11.05;;;19.60;99.90;;;;;;4859396;29;20490;-77
2021/08/21 09:53:12;;;;;;;13.27;9.63;;;19.70;99.90;;;;;;4862777;29;20048;-77
2021/08/21 09:55:40;;;;;;;13.38;10.07;;;19.80;99.90;;;;;;4876979;29;20034;-77
2021/08/21 09:58:10;;;;;;;15.38;10.85;;;19.90;99.90;;;;;;4873581;29;20045;-77
2021/08/21 10:00:37;;;;;;;13.90;10.48;;;20.00;99.90;;;;;;4846646;29;20042;-77
2021/08/21 10:03:04;;;;;;;14.85;9.93;;;20.10;99.90;;;;;;4846246;29;20493;-77
2021/08/21 10:05:31;;;;;;;14.35;9.57;;;20.20;99.90;;;;;;4862087;29;20030;-77
2021/08/21 10:08:02;;;;;;;12.38;9.18;;;20.30;99.90;;;;;;4862462;29;20041;-77
2021/08/21 10:10:34;;;;;;;11.70;8.68;;;20.30;99.90;;;;;;4840420;29;20041;-77
2021/08/21 10:13:08;;;;;;;11.18;7.75;;;20.70;99.90;;;;;;4876662;29;20061;-77
2021/08/21 10:15:40;;;;;;;8.43;6.50;;;20.40;99.90;;;;;;4876353;29;20052;-77
2021/08/21 10:18:07;;;;;;;8.98;6.10;;;20.40;99.90;;;;;;4876720;29;20045;-78
2021/08/21 10:20:35;;;;;;;10.40;6.95;;;20.30;99.90;;;;;;4857805;29;20041;-77
2021/08/21 10:23:12;;;;;;;8.45;5.80;;;20.30;99.90;;;;;;4862256;29;20479;-77
2021/08/21 10:25:45;;;;;;;11.30;6.70;;;20.30;99.90;;;;;;4852687;29;20481;-77
2021/08/21 10:28:15;;;;;;;9.77;6.60;;;20.20;99.90;;;;;;4861849;29;20076;-77
2021/08/21 10:30:43;;;;;;;9.70;6.68;;;20.30;99.90;;;;;;4862137;29;20073;-77
2021/08/21 10:33:10;;;;;;;8.45;6.72;;;20.30;99.90;;;;;;4857551;29;20065;-77
2021/08/21 10:35:46;;;;;;;12.38;7.75;;;20.30;99.90;;;;;;4860196;29;20041;-78
2021/08/21 10:38:32;;;;;;;14.18;9.40;;;20.40;99.90;;;;;;4861829;29;20045;-78
2021/08/21 10:41:10;;;;;;;11.63;9.05;;;20.50;99.90;;;;;;4837312;29;20060;-77
2021/08/21 10:43:44;;;;;;;9.68;6.97;;;20.50;99.90;;;;;;4861849;29;20048;-78
2021/08/21 10:46:11;;;;;;;11.77;7.70;;;20.60;99.90;;;;;;4861893;29;20042;-77
2021/08/21 10:48:36;;;;;;;10.52;7.32;;;20.70;99.90;;;;;;4861607;29;20533;-77
2021/08/21 10:51:46;;;;;;;12.10;8.23;;;20.80;99.90;;;;;;4861836;29;20041;-77
2021/08/21 10:54:27;;;;;;;9.07;7.13;;;20.90;99.90;;;;;;4851920;29;20049;-77
2021/08/21 10:56:54;;;;;;;11.13;7.20;;;21.00;99.90;;;;;;4846519;29;20049;-77
2021/08/21 10:59:43;;;;;;;11.07;7.88;;;21.00;99.90;;;;;;4880317;29;20400;-77
2021/08/21 11:02:31;;;;;;;8.52;6.85;;;21.10;99.90;;;;;;4842010;29;20045;-77
2021/08/21 11:05:00;;;;;;;8.57;6.30;;;21.10;99.90;;;;;;4875368;29;20079;-78
2021/08/21 11:07:41;;;;;;;12.48;6.68;;;21.00;99.90;;;;;;4874397;29;20545;-77
2021/08/21 11:10:15;;;;;;;8.13;5.30;;;21.00;99.90;;;;;;4859778;29;20033;-77
2021/08/21 11:12:44;;;;;;;5.78;4.80;;;20.90;99.90;;;;;;4863612;29;20109;-77
2021/08/21 11:15:15;;;;;;;8.00;5.72;;;20.80;99.90;;;;;;4894063;29;20513;-78
2021/08/21 11:17:42;;;;;;;8.63;5.68;;;20.80;99.90;;;;;;4876104;29;20041;-77
2021/08/21 11:20:22;;;;;;;8.43;5.25;;;20.80;99.90;;;;;;4879879;29;20450;-77
2021/08/21 11:23:08;;;;;;;5.53;4.40;;;20.70;99.90;;;;;;4893187;29;20116;-77
2021/08/21 11:25:37;;;;;;;;;;;20.70;99.90;;;;;;4861215;29;20045;-77
2021/08/21 11:28:06;;;;;;;5.38;4.72;;;20.70;99.90;;;;;;4849042;29;19971;-77
2021/08/21 11:30:36;;;;;;;6.95;5.20;;;20.60;99.90;;;;;;4837016;29;20119;-77
2021/08/21 11:33:08;;;;;;;6.53;5.03;;;20.60;99.90;;;;;;4862844;29;20505;-77
2021/08/21 11:35:36;;;;;;;8.20;5.55;;;20.50;99.90;;;;;;4861622;29;20532;-77
2021/08/21 11:38:08;;;;;;;6.32;4.80;;;20.50;99.90;;;;;;4846571;29;20553;-77
2021/08/21 11:40:43;;;;;;;6.70;4.75;;;20.50;99.90;;;;;;4868847;29;20041;-77
2021/08/21 11:43:19;;;;;;;7.47;5.78;;;20.60;99.90;;;;;;4861319;29;20041;-82
2021/08/21 11:45:45;;;;;;;7.97;5.40;;;20.70;99.90;;;;;;4858850;29;20040;-80
2021/08/21 11:48:12;;;;;;;7.20;6.10;;;20.80;99.90;;;;;;4860059;29;20502;-82
2021/08/21 11:50:44;;;;;;;5.65;5.05;;;20.90;99.90;;;;;;4878694;29;20504;-82
2021/08/21 11:53:13;;;;;;;7.00;5.18;;;21.00;99.90;;;;;;4872660;29;20029;-82
2021/08/21 11:55:40;;;;;;;4.93;4.38;;;21.10;99.90;;;;;;4832545;29;20671;-82
2021/08/21 11:58:10;;;;;;;4.10;3.67;;;21.20;99.90;;;;;;4875182;29;20042;-82
2021/08/21 12:00:42;;;;;;;4.47;3.80;;;21.30;99.90;;;;;;4855536;29;20041;-82
2021/08/21 12:03:11;;;;;;;6.70;4.28;;;21.30;99.90;;;;;;4858884;29;20065;-82
2021/08/21 12:05:42;;;;;;;5.47;4.00;;;21.30;99.90;;;;;;4884484;29;20099;-82
2021/08/21 12:08:20;;;;;;;4.18;3.47;;;21.30;99.90;;;;;;4860189;29;20053;-82
2021/08/21 12:11:01;;;;;;;4.75;3.88;;;21.30;99.90;;;;;;4874589;29;20116;-82
2021/08/21 12:13:35;;;;;;;4.65;3.63;;;21.30;99.90;;;;;;4856199;29;20109;-82
2021/08/21 12:16:10;;;;;;;5.45;3.50;;;21.30;99.90;;;;;;4863501;29;20037;-82
2021/08/21 12:18:39;;;;;;;6.55;3.90;;;21.40;99.90;;;;;;4874302;29;20041;-82
2021/08/21 12:21:07;;;;;;;5.22;4.20;;;21.50;99.90;;;;;;4873191;29;20037;-82
2021/08/21 12:23:35;;;;;;;4.10;3.58;;;21.50;99.90;;;;;;4860227;29;20038;-82
2021/08/21 12:26:03;;;;;;;4.32;3.47;;;21.50;99.90;;;;;;4860265;29;20038;-82
2021/08/21 12:28:43;;;;;;;4.50;3.50;;;21.20;99.90;;;;;;4873149;29;20501;-82
2021/08/21 12:31:17;;;;;;;3.95;3.33;;;21.40;99.90;;;;;;4871847;29;20115;-82
2021/08/21 12:33:46;;;;;;;3.90;3.50;;;21.40;99.90;;;;;;4847484;29;20041;-82
2021/08/21 12:36:19;;;;;;;5.63;3.72;;;21.40;99.90;;;;;;4860199;29;20128;-82
2021/08/21 12:39:21;;;;;;;3.90;3.40;;;21.40;99.90;;;;;;4848179;29;20080;-82